Time;durP1;ratioP1;P1;durP2;ratioP2;P2;SDS_P1;SDS_P2;PMS_P1;PMS_P2;Temp;Humidity;BMP_temperature;BMP_pressure;BME280_temperature;BME280_humidity;BME280_pressure;Samples;Min_cycle;Max_cycle;Signal;HPM_P1;HPM_P2
2023/07/13 00:00:23;;;;;;;6.03;3.42;;;;;;;17.08;70.95;100720.91;4985420;28;20491;-78
2023/07/13 00:02:53;;;;;;;9.88;3.10;;;;;;;17.09;70.98;100722.53;4987331;28;20051;-81
2023/07/13 00:05:20;;;;;;;8.00;3.05;;;;;;;17.07;70.77;100720.06;4987265;28;20089;-81
2023/07/13 00:07:48;;;;;;;6.45;3.15;;;;;;;17.07;71.23;100729.84;4987204;28;20058;-81
2023/07/13 00:10:21;;;;;;;9.40;3.40;;;;;;;17.02;71.35;100724.31;4979930;28;20110;-80
2023/07/13 00:12:49;;;;;;;6.88;3.20;;;;;;;17.11;71.00;100723.16;4985690;28;20109;-79
2023/07/13 00:15:22;;;;;;;11.00;3.00;;;;;;;17.10;71.29;100729.44;4986882;28;20133;-81
2023/07/13 00:17:49;;;;;;;6.80;2.78;;;;;;;17.11;71.23;100733.72;4979675;28;20055;-81
2023/07/13 00:20:16;;;;;;;10.73;3.05;;;;;;;17.11;71.27;100728.44;4986928;28;20350;-81
2023/07/13 00:22:43;;;;;;;8.05;3.38;;;;;;;17.10;71.48;100742.66;4980365;28;20051;-81
2023/07/13 00:25:12;;;;;;;6.40;2.95;;;;;;;17.05;71.77;100743.25;4979766;28;20077;-81
2023/07/13 00:27:40;;;;;;;6.20;2.65;;;;;;;16.98;72.07;100725.75;4990876;28;20110;-80
2023/07/13 00:30:10;;;;;;;8.82;3.10;;;;;;;16.98;71.98;100736.31;4990040;28;20235;-81
2023/07/13 00:32:38;;;;;;;5.72;2.65;;;;;;;16.95;72.40;100739.34;4973036;28;20105;-82
2023/07/13 00:35:05;;;;;;;8.20;2.97;;;;;;;16.87;72.42;100741.13;4979651;28;20488;-81
2023/07/13 00:37:33;;;;;;;8.65;3.00;;;;;;;16.85;72.54;100737.88;4988179;28;20046;-81
2023/07/13 00:39:59;;;;;;;5.20;2.83;;;;;;;16.75;72.86;100729.47;4985951;28;20062;-80
2023/07/13 00:42:26;;;;;;;9.50;2.88;;;;;;;16.77;72.74;100738.03;4988663;28;20046;-79
2023/07/13 00:45:05;;;;;;;8.00;3.00;;;;;;;16.73;72.97;100735.94;4988865;28;20058;-79
2023/07/13 00:47:32;;;;;;;7.20;2.50;;;;;;;16.69;73.07;100732.88;4982123;28;20118;-82
2023/07/13 00:50:01;;;;;;;6.93;3.00;;;;;;;16.67;73.34;100728.78;4983333;28;20149;-81
2023/07/13 00:52:29;;;;;;;7.45;3.03;;;;;;;16.68;73.46;100738.34;4991998;28;20086;-80
2023/07/13 00:54:56;;;;;;;7.93;2.55;;;;;;;16.63;73.47;100733.63;4981542;28;20043;-80
2023/07/13 00:57:24;;;;;;;4.32;2.53;;;;;;;16.66;73.50;100727.97;4983376;28;20138;-80
2023/07/13 00:59:56;;;;;;;13.23;2.80;;;;;;;16.65;73.75;100731.63;4983492;28;20073;-81
2023/07/13 01:02:25;;;;;;;8.30;2.67;;;;;;;16.58;73.90;100730.72;4990527;28;20078;-81
2023/07/13 01:04:53;;;;;;;6.45;3.42;;;;;;;16.59;73.86;100727.09;4989957;28;20082;-81
2023/07/13 01:07:20;;;;;;;5.88;2.70;;;;;;;16.53;74.16;100722.59;4992368;28;20093;-81
2023/07/13 01:09:46;;;;;;;8.90;3.13;;;;;;;16.44;74.47;100724.56;4981361;28;20435;-81
2023/07/13 01:12:13;;;;;;;9.65;3.22;;;;;;;16.43;74.67;100719.47;4990202;28;20051;-80
2023/07/13 01:14:42;;;;;;;5.50;2.80;;;;;;;16.40;74.78;100719.84;4982130;28;20055;-80
2023/07/13 01:17:11;;;;;;;8.63;3.05;;;;;;;16.33;74.98;100726.91;4981048;28;20047;-80
2023/07/13 01:19:42;;;;;;;14.15;4.82;;;;;;;16.34;75.17;100726.72;4981075;28;20129;-80
2023/07/13 01:22:13;;;;;;;7.30;3.30;;;;;;;16.30;75.18;100727.28;4980221;28;20118;-80
2023/07/13 01:24:42;;;;;;;8.20;3.08;;;;;;;16.23;75.40;100724.59;4980748;28;20047;-80
2023/07/13 01:27:11;;;;;;;8.40;3.17;;;;;;;16.19;75.62;100724.16;4988315;28;20043;-80
2023/07/13 01:29:41;;;;;;;4.90;3.10;;;;;;;16.15;75.76;100725.53;4984750;28;20428;-81
2023/07/13 01:32:09;;;;;;;4.88;3.00;;;;;;;16.12;76.04;100733.81;4985485;28;20126;-81
2023/07/13 01:34:36;;;;;;;8.57;3.13;;;;;;;16.06;76.48;100737.25;4980937;28;20137;-80
2023/07/13 01:37:03;;;;;;;8.95;3.17;;;;;;;16.06;76.36;100729.34;4980342;28;20043;-78
2023/07/13 01:39:32;;;;;;;7.97;3.47;;;;;;;16.00;76.48;100724.00;4980957;28;20112;-80
2023/07/13 01:41:59;;;;;;;8.90;3.10;;;;;;;16.03;76.48;100732.34;4982056;28;20051;-81
2023/07/13 01:44:26;;;;;;;8.30;2.78;;;;;;;16.04;76.59;100736.63;4980821;28;20078;-82
2023/07/13 01:46:53;;;;;;;5.40;2.90;;;;;;;16.05;76.71;100734.81;4981511;28;20399;-80
2023/07/13 01:49:20;;;;;;;7.35;3.15;;;;;;;16.06;76.97;100745.16;4988717;28;20070;-81
2023/07/13 01:51:46;;;;;;;10.05;3.47;;;;;;;16.06;76.88;100737.25;4989351;28;20133;-81
2023/07/13 01:54:13;;;;;;;6.57;2.80;;;;;;;16.06;77.31;100734.59;4981399;28;20092;-80
2023/07/13 01:56:41;;;;;;;6.05;2.97;;;;;;;16.08;77.41;100729.13;4981267;28;20487;-82
2023/07/13 01:59:08;;;;;;;8.15;3.40;;;;;;;16.07;77.47;100728.28;4988069;28;20057;-80
2023/07/13 02:01:35;;;;;;;6.28;3.13;;;;;;;16.05;77.56;100724.25;4978460;28;20484;-79
2023/07/13 02:04:08;;;;;;;7.10;3.50;;;;;;;15.95;78.03;100732.47;4982093;28;20086;-80
2023/07/13 02:06:37;;;;;;;6.65;2.67;;;;;;;15.97;78.01;100734.91;4985800;28;20106;-78
2023/07/13 02:09:03;;;;;;;7.07;2.97;;;;;;;15.92;78.04;100735.47;4986321;28;20089;-78
2023/07/13 02:11:32;;;;;;;6.30;3.30;;;;;;;15.83;78.17;100736.59;4979835;28;20137;-79
2023/07/13 02:14:01;;;;;;;8.05;3.13;;;;;;;15.82;78.37;100745.53;4983124;28;20078;-81
2023/07/13 02:16:28;;;;;;;9.40;3.17;;;;;;;15.79;78.65;100745.91;4981562;28;20073;-79
2023/07/13 02:18:55;;;;;;;9.15;3.40;;;;;;;15.71;78.95;100744.19;4980112;28;20058;-79
2023/07/13 02:21:22;;;;;;;7.32;3.30;;;;;;;15.68;78.98;100743.75;4979662;28;20137;-79
2023/07/13 02:23:49;;;;;;;9.05;3.60;;;;;;;15.66;78.97;100751.03;4981348;28;20055;-78
2023/07/13 02:26:16;;;;;;;5.88;3.33;;;;;;;15.67;79.08;100747.38;4988680;28;20425;-79
2023/07/13 02:28:42;;;;;;;4.05;2.55;;;;;;;15.67;78.98;100736.81;4979817;28;20086;-80
2023/07/13 02:31:13;;;;;;;6.03;3.00;;;;;;;15.69;78.70;100740.09;4981464;28;20054;-79
2023/07/13 02:33:40;;;;;;;11.30;3.30;;;;;;;16.02;78.63;100736.00;4983128;28;20484;-81
2023/07/13 02:36:07;;;;;;;6.38;3.20;;;;;;;16.09;77.94;100726.28;4981998;28;20070;-80
2023/07/13 02:38:35;;;;;;;8.35;3.13;;;;;;;16.16;77.13;100729.00;4981802;28;20118;-80
2023/07/13 02:41:02;;;;;;;8.60;2.95;;;;;;;16.18;76.86;100730.44;4989512;28;20051;-81
2023/07/13 02:43:29;;;;;;;6.95;3.05;;;;;;;16.25;77.09;100741.06;4982052;28;20059;-81
2023/07/13 02:45:56;;;;;;;6.43;2.97;;;;;;;16.16;76.63;100743.00;4981302;28;20051;-80
2023/07/13 02:48:24;;;;;;;5.82;3.20;;;;;;;16.14;76.77;100744.19;4977921;28;20112;-83
2023/07/13 02:50:51;;;;;;;7.20;3.40;;;;;;;16.00;76.95;100735.38;4985722;28;20121;-83
2023/07/13 02:53:17;;;;;;;4.72;2.92;;;;;;;16.02;77.00;100746.56;4982421;28;20079;-82
2023/07/13 02:58:46;;;;;;;6.20;2.40;;;;;;;15.91;77.50;100739.13;4980018;28;20050;-83
2023/07/13 03:01:12;;;;;;;8.82;3.20;;;;;;;15.90;77.43;100753.31;4988718;28;20140;-84
2023/07/13 03:03:40;;;;;;;5.68;3.08;;;;;;;15.87;77.55;100746.59;4980239;28;20133;-82
2023/07/13 03:06:08;;;;;;;10.13;3.65;;;;;;;15.87;77.64;100748.41;5026879;23;20047;-85
2023/07/13 03:08:37;;;;;;;7.95;3.00;;;;;;;15.73;77.66;100744.81;4972238;28;20115;-82
2023/07/13 03:11:06;;;;;;;5.47;3.30;;;;;;;15.78;77.87;100758.28;4955476;28;20063;-83
2023/07/13 03:13:33;;;;;;;15.73;3.53;;;;;;;15.77;77.96;100775.09;4962727;29;20459;-83
2023/07/13 03:16:00;;;;;;;11.70;3.22;;;;;;;15.76;78.16;100767.38;4964989;28;20143;-80
2023/07/13 03:18:28;;;;;;;6.75;3.30;;;;;;;15.74;78.06;100772.03;4961545;28;20142;-83
2023/07/13 03:20:57;;;;;;;6.63;3.53;;;;;;;15.72;78.16;100764.28;4971585;28;20114;-82
2023/07/13 03:23:24;;;;;;;6.75;3.30;;;;;;;15.73;77.95;100773.84;4971933;28;20081;-83
2023/07/13 03:25:51;;;;;;;7.47;3.03;;;;;;;15.70;78.22;100783.94;4969633;28;20125;-84
2023/07/13 03:28:18;;;;;;;6.38;3.30;;;;;;;15.74;78.21;100774.66;4973574;28;20054;-84
2023/07/13 03:30:44;;;;;;;4.70;2.70;;;;;;;15.66;78.44;100787.94;4971421;28;20074;-84
2023/07/13 03:33:11;;;;;;;7.65;3.10;;;;;;;15.67;78.57;100790.41;4971719;28;20075;-84
2023/07/13 03:35:41;;;;;;;7.40;3.22;;;;;;;15.66;78.46;100774.75;4967810;28;20516;-80
2023/07/13 03:38:09;;;;;;;8.73;3.50;;;;;;;15.61;78.61;100780.59;4976069;28;20051;-84
2023/07/13 03:40:36;;;;;;;5.55;3.13;;;;;;;15.48;79.52;100788.34;4957581;28;20054;-80
2023/07/13 03:43:02;;;;;;;4.95;2.88;;;;;;;15.43;79.64;100785.44;4962139;28;20431;-80
2023/07/13 03:45:29;;;;;;;9.60;3.83;;;;;;;15.26;80.28;100793.53;4958015;28;20059;-79
2023/07/13 03:47:56;;;;;;;6.60;3.38;;;;;;;15.25;80.50;100801.59;4958301;28;20065;-78
2023/07/13 03:50:22;;;;;;;6.80;3.10;;;;;;;15.24;80.55;100795.53;4966664;28;20074;-80
2023/07/13 03:52:50;;;;;;;10.98;3.50;;;;;;;15.15;80.70;100801.06;4964977;28;20138;-81
2023/07/13 03:55:20;;;;;;;5.25;3.00;;;;;;;15.26;81.04;100805.88;4960346;28;20060;-80
2023/07/13 03:57:47;;;;;;;5.45;3.38;;;;;;;15.31;81.00;100803.53;4958947;28;20043;-79
2023/07/13 04:00:15;;;;;;;7.70;3.28;;;;;;;15.35;81.00;100809.25;4968460;28;20050;-80
2023/07/13 04:02:42;;;;;;;6.82;2.90;;;;;;;15.42;80.78;100808.34;4961257;28;20058;-81
2023/07/13 04:05:11;;;;;;;7.68;3.08;;;;;;;15.55;80.47;100815.63;4965871;28;20431;-81
2023/07/13 04:07:38;;;;;;;7.15;4.18;;;;;;;15.78;80.15;100818.13;4959608;28;20074;-81
2023/07/13 04:10:06;;;;;;;10.68;3.40;;;;;;;16.26;78.68;100812.16;4961243;28;20082;-80
2023/07/13 04:12:34;;;;;;;10.30;3.80;;;;;;;16.75;76.97;100803.47;4969627;28;20094;-81
2023/07/13 04:15:01;;;;;;;10.20;3.42;;;;;;;17.36;75.05;100793.06;4963344;28;20078;-81
2023/07/13 04:17:28;;;;;;;7.78;3.70;;;;;;;17.61;73.62;100790.72;4961958;28;20051;-82
2023/07/13 04:19:56;;;;;;;8.07;2.90;;;;;;;17.71;72.34;100808.91;4967448;28;20065;-82
2023/07/13 04:22:23;;;;;;;10.75;3.40;;;;;;;17.68;72.53;100806.63;4963570;28;20075;-83
2023/07/13 04:24:50;;;;;;;8.00;3.03;;;;;;;17.54;72.79;100798.63;4973540;28;20055;-81
2023/07/13 04:27:16;;;;;;;8.05;3.10;;;;;;;17.05;74.10;100804.06;4966379;28;20043;-82
2023/07/13 04:29:44;;;;;;;6.22;3.17;;;;;;;17.04;74.91;100814.81;4966262;28;20055;-81
2023/07/13 04:32:13;;;;;;;8.73;3.35;;;;;;;17.69;73.19;100809.09;4968075;28;20055;-81
2023/07/13 04:34:40;;;;;;;4.95;2.88;;;;;;;18.26;71.47;100815.75;4975355;28;20059;-83
2023/07/13 04:37:07;;;;;;;6.75;3.10;;;;;;;17.85;71.59;100811.41;4962711;28;20467;-80
2023/07/13 04:39:34;;;;;;;8.63;3.30;;;;;;;17.74;72.75;100821.72;4960309;28;20055;-80
2023/07/13 04:42:01;;;;;;;7.60;2.97;;;;;;;17.56;73.61;100820.41;4968248;28;20070;-80
2023/07/13 04:44:27;;;;;;;7.18;3.13;;;;;;;17.34;74.24;100815.41;4962608;28;20054;-80
2023/07/13 04:46:58;;;;;;;7.50;2.90;;;;;;;17.23;75.10;100814.97;4960802;28;20058;-81
2023/07/13 04:49:24;;;;;;;5.50;3.13;;;;;;;17.63;74.58;100819.63;4962829;28;20044;-79
2023/07/13 04:51:54;;;;;;;5.90;3.60;;;;;;;18.07;73.58;100827.13;4960214;28;20090;-80
2023/07/13 04:54:21;;;;;;;9.52;3.03;;;;;;;18.26;72.55;100820.25;4959039;28;20138;-81
2023/07/13 04:56:48;;;;;;;7.13;3.10;;;;;;;18.26;72.25;100825.53;4956549;28;20047;-80
2023/07/13 04:59:15;;;;;;;10.05;3.20;;;;;;;18.16;73.06;100832.03;4957701;29;20047;-80
2023/07/13 05:01:42;;;;;;;8.93;3.25;;;;;;;18.29;72.83;100825.13;4958369;28;20055;-80
2023/07/13 05:04:10;;;;;;;7.32;3.60;;;;;;;18.28;72.63;100824.31;4959568;28;20057;-80
2023/07/13 05:06:37;;;;;;;9.52;3.70;;;;;;;18.49;72.44;100825.94;4955981;28;20086;-80
2023/07/13 05:09:04;;;;;;;11.35;3.70;;;;;;;18.60;72.28;100827.19;4975238;28;20047;-80
2023/07/13 05:11:30;;;;;;;8.07;3.50;;;;;;;18.39;72.58;100829.03;4959521;28;20070;-80
2023/07/13 05:13:57;;;;;;;15.40;4.00;;;;;;;18.30;73.22;100842.66;4959296;28;20085;-80
2023/07/13 05:16:23;;;;;;;15.93;3.72;;;;;;;18.41;73.41;100850.84;4959476;28;20051;-80
2023/07/13 05:18:50;;;;;;;5.78;3.05;;;;;;;18.66;72.81;100837.81;4958809;28;20066;-80
2023/07/13 05:21:18;;;;;;;13.85;4.28;;;;;;;19.03;72.26;100840.84;4960867;28;20142;-80
2023/07/13 05:23:45;;;;;;;9.25;3.72;;;;;;;19.23;71.37;100833.69;4963716;28;20130;-79
2023/07/13 05:26:12;;;;;;;7.63;3.22;;;;;;;19.55;70.72;100838.09;4960983;28;20079;-79
2023/07/13 05:28:39;;;;;;;6.70;3.65;;;;;;;19.96;69.38;100826.28;4959752;28;20047;-80
2023/07/13 05:31:07;;;;;;;14.70;4.10;;;;;;;20.66;67.42;100831.56;4958852;28;20095;-81
2023/07/13 05:33:34;;;;;;;14.88;4.45;;;;;;;21.14;66.53;100843.19;4963746;28;20129;-80
2023/07/13 05:36:01;;;;;;;14.13;4.07;;;;;;;21.89;63.96;100845.59;4958970;28;20057;-81
2023/07/13 05:38:29;;;;;;;12.10;4.18;;;;;;;22.55;62.41;100850.00;4962431;28;20051;-80
2023/07/13 05:40:57;;;;;;;18.73;5.38;;;;;;;23.23;61.03;100851.31;4969687;28;20082;-80
2023/07/13 05:43:24;;;;;;;12.40;3.33;;;;;;;23.41;60.04;100862.69;4979189;28;20097;-81
2023/07/13 05:45:53;;;;;;;19.52;3.72;;;;;;;22.70;61.16;100861.03;4968138;28;20095;-81
2023/07/13 05:48:19;;;;;;;10.13;3.47;;;;;;;21.57;63.75;100868.16;4963612;28;20475;-78
2023/07/13 05:50:46;;;;;;;10.77;3.92;;;;;;;20.96;66.04;100866.28;4959449;29;20133;-79
2023/07/13 05:53:13;;;;;;;21.17;4.40;;;;;;;20.16;67.78;100869.50;4961137;28;20066;-81
2023/07/13 05:55:44;;;;;;;14.05;3.80;;;;;;;20.35;68.14;100858.94;4959862;28;20039;-80
2023/07/13 05:58:12;;;;;;;11.65;3.85;;;;;;;20.43;67.80;100866.69;4967719;28;20109;-80
2023/07/13 06:00:38;;;;;;;8.48;3.45;;;;;;;19.86;69.07;100863.91;4963644;28;20129;-79
2023/07/13 06:03:06;;;;;;;7.30;3.63;;;;;;;19.74;70.29;100868.25;4962957;28;20047;-81
2023/07/13 06:05:34;;;;;;;11.57;4.47;;;;;;;19.42;70.51;100866.47;4959810;28;20047;-80
2023/07/13 06:08:00;;;;;;;13.13;4.13;;;;;;;19.30;71.41;100871.63;4960713;28;20459;-80
2023/07/13 06:10:27;;;;;;;9.43;3.42;;;;;;;19.66;70.95;100865.03;4959129;28;20047;-81
2023/07/13 06:12:55;;;;;;;11.88;3.65;;;;;;;19.51;71.34;100868.75;4957682;28;20074;-81
2023/07/13 06:15:22;;;;;;;9.15;3.30;;;;;;;20.14;70.34;100868.88;4960277;28;20083;-80
2023/07/13 06:17:48;;;;;;;9.23;3.67;;;;;;;20.98;68.24;100864.22;4964956;28;20051;-81
2023/07/13 06:20:15;;;;;;;10.02;3.65;;;;;;;21.73;65.60;100856.91;4961091;28;20087;-81
2023/07/13 06:22:45;;;;;;;9.23;4.15;;;;;;;20.71;66.98;100872.44;4966712;28;20146;-81
2023/07/13 06:25:11;;;;;;;10.93;3.72;;;;;;;20.74;68.22;100887.94;4965702;28;20079;-79
2023/07/13 06:27:38;;;;;;;15.25;4.63;;;;;;;20.44;69.08;100886.91;4957596;28;20054;-79
2023/07/13 06:30:07;;;;;;;9.27;3.70;;;;;;;19.99;70.01;100891.44;4975193;28;20499;-81
2023/07/13 06:32:34;;;;;;;12.40;4.03;;;;;;;19.48;72.00;100895.66;4963981;28;20082;-79
2023/07/13 06:35:01;;;;;;;14.90;4.15;;;;;;;19.58;71.66;100889.13;4961002;28;20055;-80
2023/07/13 06:37:27;;;;;;;11.05;3.78;;;;;;;20.30;70.31;100888.03;4957578;28;20062;-80
2023/07/13 06:39:54;;;;;;;9.23;3.50;;;;;;;21.85;66.67;100882.53;4957563;28;20051;-80
2023/07/13 06:42:20;;;;;;;10.27;3.97;;;;;;;22.25;64.58;100882.03;4957277;28;20086;-79
2023/07/13 06:44:47;;;;;;;11.43;3.53;;;;;;;21.87;65.62;100890.31;4957392;28;20054;-81
2023/07/13 06:47:15;;;;;;;8.20;3.60;;;;;;;21.22;66.77;100890.03;4958128;28;20054;-81
2023/07/13 06:49:42;;;;;;;9.40;3.70;;;;;;;20.70;68.58;100899.22;4957393;28;20472;-80
2023/07/13 06:52:08;;;;;;;8.55;3.92;;;;;;;20.49;69.33;100895.88;4958004;28;20086;-80
2023/07/13 06:54:35;;;;;;;10.45;4.65;;;;;;;20.64;69.19;100895.59;4957563;28;20055;-80
2023/07/13 06:57:02;;;;;;;11.48;3.75;;;;;;;20.59;69.14;100899.91;4957923;28;20065;-80
2023/07/13 06:59:31;;;;;;;8.88;3.83;;;;;;;21.12;68.58;100900.31;4960428;28;20178;-79
2023/07/13 07:01:59;;;;;;;10.10;4.03;;;;;;;21.40;66.86;100903.34;4963557;28;20063;-80
2023/07/13 07:04:27;;;;;;;10.85;4.38;;;;;;;20.93;67.56;100898.63;4959451;28;20427;-83
2023/07/13 07:06:54;;;;;;;14.90;4.85;;;;;;;21.51;66.85;100907.94;4967888;28;20116;-80
2023/07/13 07:09:21;;;;;;;11.60;4.38;;;;;;;21.44;66.21;100904.53;4965550;28;20047;-80
2023/07/13 07:11:49;;;;;;;9.20;3.55;;;;;;;21.50;66.58;100900.16;4965681;28;20504;-79
2023/07/13 07:14:17;;;;;;;9.55;3.60;;;;;;;21.41;66.76;100909.47;4957981;28;20070;-80
2023/07/13 07:16:44;;;;;;;10.27;4.45;;;;;;;21.32;67.26;100908.13;4968196;28;20134;-80
2023/07/13 07:19:10;;;;;;;10.52;4.00;;;;;;;20.81;68.19;100917.13;4973061;28;20456;-80
2023/07/13 07:21:38;;;;;;;11.38;3.75;;;;;;;20.77;69.12;100918.63;4970262;28;20551;-81
2023/07/13 07:24:06;;;;;;;13.95;4.07;;;;;;;20.27;70.22;100929.13;4968186;28;20058;-81
2023/07/13 07:26:32;;;;;;;11.88;4.25;;;;;;;20.34;70.37;100932.53;4958740;28;20091;-80
2023/07/13 07:29:01;;;;;;;9.68;4.10;;;;;;;20.45;70.43;100926.56;4961135;28;20093;-80
2023/07/13 07:31:28;;;;;;;13.70;3.97;;;;;;;19.79;71.69;100920.75;4965140;28;20130;-79
2023/07/13 07:33:55;;;;;;;8.30;4.03;;;;;;;19.92;71.86;100925.97;4961113;28;20501;-80
2023/07/13 07:36:22;;;;;;;14.65;4.45;;;;;;;19.88;72.19;100928.25;4966119;28;20471;-81
2023/07/13 07:38:50;;;;;;;7.22;3.83;;;;;;;20.00;72.37;100924.94;4963667;28;20594;-81
2023/07/13 07:41:16;;;;;;;11.85;4.25;;;;;;;20.29;72.22;100934.22;4960789;28;20507;-80
2023/07/13 07:43:43;;;;;;;13.02;4.75;;;;;;;20.23;71.94;100933.22;4958535;28;20062;-80
2023/07/13 07:46:12;;;;;;;14.95;4.75;;;;;;;20.00;72.42;100932.91;4966922;28;20116;-82
2023/07/13 07:48:39;;;;;;;10.15;4.20;;;;;;;20.35;72.01;100928.03;4957458;28;20055;-81
2023/07/13 07:51:05;;;;;;;10.75;4.22;;;;;;;20.73;71.28;100936.84;4965056;28;20111;-80
2023/07/13 07:53:32;;;;;;;10.65;4.13;;;;;;;20.63;71.30;100925.88;4957199;28;20065;-79
2023/07/13 07:56:00;;;;;;;11.55;4.53;;;;;;;20.90;71.20;100937.13;4961588;28;20051;-79
2023/07/13 07:58:27;;;;;;;13.40;4.75;;;;;;;20.54;70.89;100927.16;4971964;28;20074;-81
2023/07/13 08:00:53;;;;;;;14.57;4.50;;;;;;;20.82;70.54;100929.41;4958180;28;20114;-81
2023/07/13 08:03:20;;;;;;;14.05;4.18;;;;;;;20.69;70.76;100932.97;4957551;28;20192;-81
2023/07/13 08:05:47;;;;;;;11.68;4.50;;;;;;;20.54;71.55;100932.47;4957797;28;20138;-81
2023/07/13 08:08:14;;;;;;;12.77;4.40;;;;;;;20.93;70.19;100925.22;4965502;28;20051;-80
2023/07/13 08:10:40;;;;;;;10.40;4.47;;;;;;;20.97;69.64;100931.75;4964499;28;20138;-81
2023/07/13 08:13:08;;;;;;;9.18;4.32;;;;;;;21.15;69.88;100931.81;4957513;28;20059;-81
2023/07/13 08:15:35;;;;;;;6.45;3.80;;;;;;;21.30;69.27;100926.16;4948692;28;20134;-81
2023/07/13 08:18:02;;;;;;;11.23;3.80;;;;;;;21.08;69.89;100929.19;4964694;28;20139;-80
2023/07/13 08:20:29;;;;;;;11.45;4.35;;;;;;;21.27;69.00;100926.63;4965051;28;20078;-80
2023/07/13 08:22:55;;;;;;;11.77;4.28;;;;;;;21.26;69.27;100925.81;4957905;28;20111;-80
2023/07/13 08:25:22;;;;;;;10.05;4.05;;;;;;;21.42;68.75;100922.56;4958724;28;20079;-79
2023/07/13 08:27:49;;;;;;;9.38;4.30;;;;;;;21.38;68.72;100921.38;4968763;28;20074;-81
2023/07/13 08:30:17;;;;;;;12.38;4.35;;;;;;;21.89;68.40;100925.53;4959284;28;20051;-81
2023/07/13 08:32:44;;;;;;;10.63;3.97;;;;;;;21.57;68.50;100932.84;4957106;28;20059;-81
2023/07/13 08:35:13;;;;;;;7.72;4.15;;;;;;;21.86;67.37;100917.97;4957464;28;20082;-81
2023/07/13 08:37:40;;;;;;;8.18;3.95;;;;;;;22.25;67.19;100929.19;4957814;28;20106;-81
2023/07/13 08:40:11;;;;;;;11.55;3.83;;;;;;;22.50;65.83;100928.03;4965043;28;20078;-81
2023/07/13 08:42:42;;;;;;;9.10;3.95;;;;;;;22.34;66.37;100935.84;4957090;28;20134;-80
2023/07/13 08:45:18;;;;;;;13.23;4.30;;;;;;;21.88;67.10;100918.56;4964614;28;20138;-80
2023/07/13 08:47:52;;;;;;;13.48;3.95;;;;;;;21.78;66.74;100920.94;4958641;28;20066;-79
2023/07/13 08:50:26;;;;;;;8.75;3.67;;;;;;;21.97;66.67;100924.41;4956838;28;20093;-81
2023/07/13 08:52:56;;;;;;;8.18;3.80;;;;;;;21.97;66.63;100914.56;4958199;28;20055;-81
2023/07/13 08:55:28;;;;;;;8.43;4.07;;;;;;;21.71;66.46;100917.56;4964738;28;20108;-81
2023/07/13 08:58:02;;;;;;;7.78;3.55;;;;;;;21.76;66.97;100917.69;4964449;28;20134;-80
2023/07/13 09:00:42;;;;;;;10.25;3.83;;;;;;;21.67;67.06;100911.88;4963865;28;20067;-81
2023/07/13 09:03:20;;;;;;;10.70;3.95;;;;;;;22.12;66.23;100925.69;4964086;28;20047;-79
2023/07/13 09:05:54;;;;;;;7.75;4.00;;;;;;;22.37;66.45;100917.56;4990332;23;20078;-79
2023/07/13 09:08:40;;;;;;;9.40;3.95;;;;;;;22.91;64.99;100926.41;4959170;28;20423;-77
2023/07/13 09:11:21;;;;;;;11.80;3.97;;;;;;;23.12;64.36;100925.06;4964779;28;20070;-77
2023/07/13 09:13:57;;;;;;;10.63;3.85;;;;;;;22.86;64.66;100928.13;4952139;28;20075;-81
2023/07/13 09:16:25;;;;;;;7.00;3.50;;;;;;;22.57;65.13;100922.59;4971858;28;20047;-78
2023/07/13 09:18:57;;;;;;;14.85;3.88;;;;;;;22.47;65.21;100923.16;4962857;28;20047;-78
2023/07/13 09:21:29;;;;;;;8.38;3.95;;;;;;;22.51;64.52;100932.31;4968860;28;20486;-77
2023/07/13 09:24:00;;;;;;;10.52;3.72;;;;;;;22.54;64.08;100922.25;4959341;28;20053;-79
2023/07/13 09:26:30;;;;;;;9.60;4.25;;;;;;;23.35;62.55;100930.38;4960230;28;20430;-79
2023/07/13 09:29:00;;;;;;;12.05;4.07;;;;;;;22.78;63.83;100922.09;4965683;28;20114;-79
2023/07/13 09:31:34;;;;;;;6.75;3.67;;;;;;;22.79;63.74;100926.38;4958534;28;20117;-77
2023/07/13 09:34:02;;;;;;;11.10;4.10;;;;;;;23.22;62.58;100925.25;4959069;28;20051;-78
2023/07/13 09:36:31;;;;;;;12.48;3.75;;;;;;;23.28;61.97;100929.69;4959805;28;20089;-78
2023/07/13 09:39:04;;;;;;;10.50;4.22;;;;;;;23.31;62.36;100923.88;4956638;28;20134;-78
2023/07/13 09:41:39;;;;;;;11.80;3.65;;;;;;;23.66;61.99;100926.53;4958645;28;20696;-79
2023/07/13 09:44:11;;;;;;;10.65;3.88;;;;;;;24.58;59.73;100914.94;4960249;28;20051;-77
2023/07/13 09:46:39;;;;;;;8.88;3.53;;;;;;;24.81;60.04;100920.97;4957781;28;20462;-78
2023/07/13 09:49:10;;;;;;;12.57;3.83;;;;;;;24.12;59.76;100917.56;4963149;28;20141;-79
2023/07/13 09:51:37;;;;;;;8.77;3.70;;;;;;;24.01;59.64;100922.97;4961056;28;20138;-78
2023/07/13 09:54:04;;;;;;;10.88;3.85;;;;;;;24.30;59.26;100931.84;4959872;28;20083;-78
2023/07/13 09:56:33;;;;;;;14.70;3.70;;;;;;;23.40;61.26;100935.84;4966157;28;20090;-80
2023/07/13 09:59:21;;;;;;;9.13;3.70;;;;;;;23.68;61.46;100929.78;4983392;28;20134;-83
2023/07/13 10:02:04;;;;;;;6.25;3.38;;;;;;;23.82;60.69;100935.69;4956968;28;20047;-83
2023/07/13 10:04:35;;;;;;;11.50;3.47;;;;;;;22.86;62.17;100928.13;4957499;28;20517;-79
2023/07/13 10:07:09;;;;;;;13.60;4.07;;;;;;;22.61;62.76;100926.44;4972668;28;20074;-82
2023/07/13 10:09:36;;;;;;;11.82;4.07;;;;;;;22.55;63.83;100935.34;4964628;28;20054;-82
2023/07/13 10:12:05;;;;;;;12.02;4.40;;;;;;;23.24;62.37;100928.50;4967817;28;20102;-82
2023/07/13 10:14:32;;;;;;;8.80;3.83;;;;;;;23.53;61.16;100921.47;4964909;28;20109;-80
2023/07/13 10:17:02;;;;;;;10.45;4.07;;;;;;;23.17;60.74;100927.81;4964134;28;20051;-79
2023/07/13 10:19:32;;;;;;;6.72;3.58;;;;;;;23.34;60.82;100934.09;4965420;28;20043;-80
2023/07/13 10:22:03;;;;;;;9.20;3.83;;;;;;;24.20;59.61;100924.41;4972805;28;20062;-81
2023/07/13 10:24:32;;;;;;;9.25;3.28;;;;;;;24.88;57.47;100925.34;4963447;28;20050;-78
2023/07/13 10:27:04;;;;;;;7.55;3.45;;;;;;;24.92;56.62;100916.59;4961550;28;20142;-79
2023/07/13 10:29:36;;;;;;;8.10;3.47;;;;;;;25.60;56.58;100926.16;4959023;28;20059;-79
2023/07/13 10:32:04;;;;;;;;;;;;;;;24.42;57.27;100924.56;4972146;28;20075;-83
2023/07/13 10:34:31;;;;;;;7.80;3.92;;;;;;;24.16;58.16;100928.59;4978412;28;19958;-82
2023/07/13 10:36:58;;;;;;;6.82;3.30;;;;;;;23.69;59.09;100938.59;4964830;28;20059;-77
2023/07/13 10:39:28;;;;;;;8.25;4.07;;;;;;;23.73;59.66;100934.41;4957925;28;20047;-78
2023/07/13 10:42:00;;;;;;;7.30;3.50;;;;;;;23.28;60.59;100939.53;4959730;28;20115;-79
2023/07/13 10:44:31;;;;;;;6.30;3.30;;;;;;;23.53;59.68;100925.97;4962416;28;20122;-78
2023/07/13 10:47:01;;;;;;;10.57;3.15;;;;;;;23.49;59.62;100931.75;4962795;28;20511;-78
2023/07/13 10:49:29;;;;;;;11.93;4.20;;;;;;;23.54;59.77;100932.97;4957703;28;20138;-79
2023/07/13 10:51:56;;;;;;;9.30;3.80;;;;;;;23.61;59.72;100934.47;4959238;28;20049;-78
2023/07/13 10:54:31;;;;;;;8.48;3.83;;;;;;;23.87;59.34;100943.81;4966497;28;20071;-77
2023/07/13 10:57:18;;;;;;;7.90;3.55;;;;;;;24.02;59.24;100930.75;4967126;28;20191;-78
2023/07/13 10:59:54;;;;;;;5.43;3.53;;;;;;;23.82;58.78;100927.66;4979068;28;20082;-82
2023/07/13 11:02:27;;;;;;;5.85;3.22;;;;;;;;;;4977030;28;20039;-78
2023/07/13 11:04:55;;;;;;;7.60;3.47;;;;;;;24.19;58.37;100932.66;4961357;28;20043;-76
2023/07/13 11:07:23;;;;;;;15.02;3.50;;;;;;;24.48;58.05;100940.47;4969824;28;20066;-77
2023/07/13 11:09:54;;;;;;;7.07;3.10;;;;;;;24.55;57.17;100934.97;4965234;28;20483;-78
2023/07/13 11:12:43;;;;;;;8.13;4.00;;;;;;;24.37;56.29;100921.81;4961170;28;20059;-78
2023/07/13 11:15:13;;;;;;;5.63;3.47;;;;;;;23.78;57.69;100942.53;4956257;28;20411;-79
2023/07/13 11:17:51;;;;;;;6.60;3.50;;;;;;;23.52;58.90;100953.72;4957513;28;20054;-79
2023/07/13 11:20:34;;;;;;;7.45;3.67;;;;;;;23.82;59.03;100949.03;4965121;28;20078;-80
2023/07/13 11:23:30;;;;;;;8.80;3.78;;;;;;;23.63;58.92;100939.56;4964799;28;20106;-78
2023/07/13 11:25:59;;;;;;;7.22;3.42;;;;;;;23.40;59.64;100943.84;4949262;28;20507;-79
2023/07/13 11:28:31;;;;;;;9.85;3.70;;;;;;;22.97;60.16;100938.84;4972313;28;20142;-80
2023/07/13 11:31:15;;;;;;;12.60;3.72;;;;;;;22.87;61.15;100932.44;4963878;28;20057;-78
2023/07/13 11:33:54;;;;;;;8.25;3.33;;;;;;;23.17;60.62;100935.81;4951793;28;20082;-79